sensor_id;sensor_type;location;lat;lon;timestamp;P1;durP1;ratioP1;P2;durP2;ratioP2
32633;SDS011;19043;51.012;5.648;2023-02-28T00:01:09;7.25;;;4.95;;
32633;SDS011;19043;51.012;5.648;2023-02-28T00:03:35;10.93;;;5.15;;
32633;SDS011;19043;51.012;5.648;2023-02-28T00:06:03;9.10;;;4.97;;
32633;SDS011;19043;51.012;5.648;2023-02-28T00:08:29;10.15;;;4.95;;
32633;SDS011;19043;51.012;5.648;2023-02-28T00:10:55;9.85;;;5.40;;
32633;SDS011;19043;51.012;5.648;2023-02-28T00:13:20;9.27;;;4.90;;
32633;SDS011;19043;51.012;5.648;2023-02-28T00:15:45;8.52;;;5.38;;
32633;SDS011;19043;51.012;5.648;2023-02-28T00:18:10;11.98;;;4.75;;
32633;SDS011;19043;51.012;5.648;2023-02-28T00:20:36;9.43;;;5.90;;
32633;SDS011;19043;51.012;5.648;2023-02-28T00:23:02;11.38;;;5.30;;
32633;SDS011;19043;51.012;5.648;2023-02-28T00:25:27;13.30;;;5.63;;
32633;SDS011;19043;51.012;5.648;2023-02-28T00:27:52;12.00;;;6.47;;
32633;SDS011;19043;51.012;5.648;2023-02-28T00:30:18;13.00;;;5.65;;
32633;SDS011;19043;51.012;5.648;2023-02-28T00:32:44;12.40;;;5.47;;
32633;SDS011;19043;51.012;5.648;2023-02-28T00:35:09;15.35;;;5.93;;
32633;SDS011;19043;51.012;5.648;2023-02-28T00:37:35;9.82;;;5.45;;
32633;SDS011;19043;51.012;5.648;2023-02-28T00:40:00;12.35;;;5.93;;
32633;SDS011;19043;51.012;5.648;2023-02-28T00:42:27;8.23;;;5.40;;
32633;SDS011;19043;51.012;5.648;2023-02-28T00:44:52;9.63;;;5.63;;
32633;SDS011;19043;51.012;5.648;2023-02-28T00:47:17;13.10;;;6.25;;
32633;SDS011;19043;51.012;5.648;2023-02-28T00:49:43;10.60;;;5.78;;
32633;SDS011;19043;51.012;5.648;2023-02-28T00:52:08;9.45;;;5.82;;
32633;SDS011;19043;51.012;5.648;2023-02-28T00:54:34;10.80;;;6.35;;
32633;SDS011;19043;51.012;5.648;2023-02-28T00:56:59;7.25;;;5.57;;
32633;SDS011;19043;51.012;5.648;2023-02-28T00:59:24;9.10;;;6.03;;
32633;SDS011;19043;51.012;5.648;2023-02-28T01:01:50;13.52;;;6.05;;
32633;SDS011;19043;51.012;5.648;2023-02-28T01:04:15;11.57;;;6.15;;
32633;SDS011;19043;51.012;5.648;2023-02-28T01:06:41;9.82;;;6.35;;
32633;SDS011;19043;51.012;5.648;2023-02-28T01:09:06;8.50;;;6.25;;
32633;SDS011;19043;51.012;5.648;2023-02-28T01:11:32;11.00;;;6.70;;
32633;SDS011;19043;51.012;5.648;2023-02-28T01:13:58;14.07;;;6.50;;
32633;SDS011;19043;51.012;5.648;2023-02-28T01:16:23;15.18;;;6.45;;
32633;SDS011;19043;51.012;5.648;2023-02-28T01:18:48;11.40;;;6.75;;
32633;SDS011;19043;51.012;5.648;2023-02-28T01:21:15;13.00;;;6.40;;
32633;SDS011;19043;51.012;5.648;2023-02-28T01:23:41;12.27;;;7.28;;
32633;SDS011;19043;51.012;5.648;2023-02-28T01:26:07;9.40;;;6.00;;
32633;SDS011;19043;51.012;5.648;2023-02-28T01:28:33;9.85;;;7.25;;
32633;SDS011;19043;51.012;5.648;2023-02-28T01:30:58;11.40;;;7.30;;
32633;SDS011;19043;51.012;5.648;2023-02-28T01:33:24;11.75;;;6.65;;
32633;SDS011;19043;51.012;5.648;2023-02-28T01:35:49;11.18;;;6.82;;
32633;SDS011;19043;51.012;5.648;2023-02-28T01:38:14;9.48;;;6.20;;
32633;SDS011;19043;51.012;5.648;2023-02-28T01:40:40;11.07;;;6.22;;
32633;SDS011;19043;51.012;5.648;2023-02-28T01:43:12;10.50;;;6.43;;
32633;SDS011;19043;51.012;5.648;2023-02-28T01:45:42;11.70;;;6.65;;
32633;SDS011;19043;51.012;5.648;2023-02-28T01:48:07;12.07;;;6.80;;
32633;SDS011;19043;51.012;5.648;2023-02-28T01:50:37;13.90;;;7.63;;
32633;SDS011;19043;51.012;5.648;2023-02-28T01:53:04;11.68;;;8.10;;
32633;SDS011;19043;51.012;5.648;2023-02-28T01:55:31;10.45;;;7.25;;
32633;SDS011;19043;51.012;5.648;2023-02-28T01:57:58;13.23;;;8.05;;
32633;SDS011;19043;51.012;5.648;2023-02-28T02:00:25;12.27;;;7.55;;
32633;SDS011;19043;51.012;5.648;2023-02-28T02:02:56;10.75;;;6.53;;
32633;SDS011;19043;51.012;5.648;2023-02-28T02:05:23;12.43;;;6.97;;
32633;SDS011;19043;51.012;5.648;2023-02-28T02:07:54;13.75;;;7.18;;
32633;SDS011;19043;51.012;5.648;2023-02-28T02:10:41;16.45;;;7.32;;
32633;SDS011;19043;51.012;5.648;2023-02-28T02:15:49;8.65;;;6.25;;
32633;SDS011;19043;51.012;5.648;2023-02-28T02:18:32;8.63;;;6.70;;
32633;SDS011;19043;51.012;5.648;2023-02-28T02:28:57;9.35;;;7.20;;
32633;SDS011;19043;51.012;5.648;2023-02-28T02:42:28;12.75;;;7.32;;
32633;SDS011;19043;51.012;5.648;2023-02-28T02:44:59;9.60;;;6.70;;
32633;SDS011;19043;51.012;5.648;2023-02-28T02:47:26;14.73;;;7.85;;
32633;SDS011;19043;51.012;5.648;2023-02-28T02:49:53;11.10;;;6.65;;
32633;SDS011;19043;51.012;5.648;2023-02-28T02:52:24;14.63;;;7.65;;
32633;SDS011;19043;51.012;5.648;2023-02-28T02:54:54;12.45;;;7.20;;
32633;SDS011;19043;51.012;5.648;2023-02-28T02:57:30;10.90;;;7.38;;
32633;SDS011;19043;51.012;5.648;2023-02-28T02:59:57;10.63;;;7.20;;
32633;SDS011;19043;51.012;5.648;2023-02-28T03:02:23;11.32;;;7.50;;
32633;SDS011;19043;51.012;5.648;2023-02-28T03:04:56;14.43;;;8.02;;
32633;SDS011;19043;51.012;5.648;2023-02-28T03:07:25;10.48;;;7.25;;
32633;SDS011;19043;51.012;5.648;2023-02-28T03:09:54;9.90;;;7.65;;
32633;SDS011;19043;51.012;5.648;2023-02-28T03:12:20;13.15;;;8.35;;
32633;SDS011;19043;51.012;5.648;2023-02-28T03:22:50;13.75;;;7.55;;
32633;SDS011;19043;51.012;5.648;2023-02-28T03:30:24;12.93;;;8.75;;
32633;SDS011;19043;51.012;5.648;2023-02-28T03:32:53;15.18;;;8.60;;
32633;SDS011;19043;51.012;5.648;2023-02-28T03:35:21;13.77;;;8.50;;
32633;SDS011;19043;51.012;5.648;2023-02-28T03:37:48;15.50;;;8.60;;
32633;SDS011;19043;51.012;5.648;2023-02-28T03:40:15;13.20;;;8.88;;
32633;SDS011;19043;51.012;5.648;2023-02-28T03:42:43;11.57;;;8.15;;
32633;SDS011;19043;51.012;5.648;2023-02-28T03:45:16;14.50;;;8.63;;
32633;SDS011;19043;51.012;5.648;2023-02-28T03:47:51;14.07;;;8.55;;
32633;SDS011;19043;51.012;5.648;2023-02-28T03:52:44;14.55;;;7.95;;
32633;SDS011;19043;51.012;5.648;2023-02-28T03:55:10;13.48;;;8.68;;
32633;SDS011;19043;51.012;5.648;2023-02-28T03:57:59;18.35;;;10.63;;
32633;SDS011;19043;51.012;5.648;2023-02-28T04:00:30;15.32;;;9.70;;
32633;SDS011;19043;51.012;5.648;2023-02-28T04:02:57;11.82;;;9.32;;
32633;SDS011;19043;51.012;5.648;2023-02-28T04:05:23;19.73;;;10.65;;
32633;SDS011;19043;51.012;5.648;2023-02-28T04:07:48;13.93;;;9.30;;
32633;SDS011;19043;51.012;5.648;2023-02-28T04:10:14;13.18;;;8.07;;
32633;SDS011;19043;51.012;5.648;2023-02-28T04:12:40;15.95;;;9.63;;
32633;SDS011;19043;51.012;5.648;2023-02-28T04:15:05;14.30;;;9.82;;
32633;SDS011;19043;51.012;5.648;2023-02-28T04:17:31;20.50;;;10.02;;
32633;SDS011;19043;51.012;5.648;2023-02-28T04:19:56;18.17;;;9.30;;
32633;SDS011;19043;51.012;5.648;2023-02-28T04:22:22;14.73;;;9.80;;
32633;SDS011;19043;51.012;5.648;2023-02-28T04:24:47;16.25;;;9.57;;
32633;SDS011;19043;51.012;5.648;2023-02-28T04:27:12;20.70;;;10.82;;
32633;SDS011;19043;51.012;5.648;2023-02-28T04:29:37;15.50;;;10.23;;
32633;SDS011;19043;51.012;5.648;2023-02-28T04:32:03;17.77;;;12.75;;
32633;SDS011;19043;51.012;5.648;2023-02-28T04:34:29;22.75;;;14.93;;
32633;SDS011;19043;51.012;5.648;2023-02-28T04:36:55;21.75;;;14.07;;
32633;SDS011;19043;51.012;5.648;2023-02-28T04:39:23;20.63;;;12.60;;
32633;SDS011;19043;51.012;5.648;2023-02-28T04:41:49;21.88;;;13.82;;
32633;SDS011;19043;51.012;5.648;2023-02-28T04:44:15;21.73;;;15.02;;
32633;SDS011;19043;51.012;5.648;2023-02-28T04:46:40;21.02;;;15.52;;
32633;SDS011;19043;51.012;5.648;2023-02-28T04:49:06;21.75;;;13.25;;
32633;SDS011;19043;51.012;5.648;2023-02-28T04:51:31;23.95;;;13.02;;
32633;SDS011;19043;51.012;5.648;2023-02-28T04:53:56;18.50;;;12.20;;
32633;SDS011;19043;51.012;5.648;2023-02-28T04:56:22;16.90;;;13.35;;
32633;SDS011;19043;51.012;5.648;2023-02-28T04:58:47;18.13;;;12.85;;
32633;SDS011;19043;51.012;5.648;2023-02-28T05:03:44;13.52;;;11.63;;
32633;SDS011;19043;51.012;5.648;2023-02-28T05:06:10;14.18;;;11.13;;
32633;SDS011;19043;51.012;5.648;2023-02-28T05:08:35;17.50;;;11.23;;
32633;SDS011;19043;51.012;5.648;2023-02-28T05:11:01;18.25;;;11.35;;
32633;SDS011;19043;51.012;5.648;2023-02-28T05:13:26;19.48;;;13.23;;
32633;SDS011;19043;51.012;5.648;2023-02-28T05:15:52;18.00;;;12.73;;
32633;SDS011;19043;51.012;5.648;2023-02-28T05:18:17;22.02;;;12.25;;
32633;SDS011;19043;51.012;5.648;2023-02-28T05:20:43;18.48;;;13.82;;
32633;SDS011;19043;51.012;5.648;2023-02-28T05:23:08;16.92;;;12.07;;
32633;SDS011;19043;51.012;5.648;2023-02-28T05:25:36;15.82;;;11.73;;
32633;SDS011;19043;51.012;5.648;2023-02-28T05:28:01;12.88;;;10.77;;
32633;SDS011;19043;51.012;5.648;2023-02-28T05:30:26;16.80;;;10.48;;
32633;SDS011;19043;51.012;5.648;2023-02-28T05:32:51;13.57;;;10.20;;
32633;SDS011;19043;51.012;5.648;2023-02-28T05:35:17;16.08;;;9.80;;
32633;SDS011;19043;51.012;5.648;2023-02-28T05:37:42;13.95;;;9.52;;
32633;SDS011;19043;51.012;5.648;2023-02-28T05:40:07;14.30;;;8.27;;
32633;SDS011;19043;51.012;5.648;2023-02-28T05:42:36;14.30;;;8.88;;
32633;SDS011;19043;51.012;5.648;2023-02-28T05:45:02;15.38;;;8.13;;
32633;SDS011;19043;51.012;5.648;2023-02-28T05:47:27;12.90;;;7.30;;
32633;SDS011;19043;51.012;5.648;2023-02-28T05:49:53;10.27;;;6.70;;
32633;SDS011;19043;51.012;5.648;2023-02-28T05:52:18;10.38;;;6.57;;
32633;SDS011;19043;51.012;5.648;2023-02-28T05:54:43;8.77;;;6.45;;
32633;SDS011;19043;51.012;5.648;2023-02-28T05:57:09;10.05;;;6.18;;
32633;SDS011;19043;51.012;5.648;2023-02-28T05:59:34;11.30;;;6.25;;
32633;SDS011;19043;51.012;5.648;2023-02-28T06:01:59;9.35;;;6.22;;
32633;SDS011;19043;51.012;5.648;2023-02-28T06:04:25;8.13;;;5.68;;
32633;SDS011;19043;51.012;5.648;2023-02-28T06:06:50;8.55;;;5.53;;
32633;SDS011;19043;51.012;5.648;2023-02-28T06:09:16;7.93;;;5.97;;
32633;SDS011;19043;51.012;5.648;2023-02-28T06:11:41;9.48;;;5.80;;
32633;SDS011;19043;51.012;5.648;2023-02-28T06:14:07;8.88;;;6.28;;
32633;SDS011;19043;51.012;5.648;2023-02-28T06:16:33;11.10;;;6.25;;
32633;SDS011;19043;51.012;5.648;2023-02-28T06:19:00;9.35;;;6.50;;
32633;SDS011;19043;51.012;5.648;2023-02-28T06:21:26;10.93;;;6.93;;
32633;SDS011;19043;51.012;5.648;2023-02-28T06:23:52;9.68;;;6.20;;
32633;SDS011;19043;51.012;5.648;2023-02-28T06:26:18;9.25;;;6.53;;
32633;SDS011;19043;51.012;5.648;2023-02-28T06:28:43;9.05;;;6.47;;
32633;SDS011;19043;51.012;5.648;2023-02-28T06:31:09;11.05;;;6.72;;
32633;SDS011;19043;51.012;5.648;2023-02-28T06:33:35;7.82;;;6.43;;
32633;SDS011;19043;51.012;5.648;2023-02-28T06:36:01;11.10;;;7.10;;
32633;SDS011;19043;51.012;5.648;2023-02-28T06:38:26;11.60;;;6.72;;
32633;SDS011;19043;51.012;5.648;2023-02-28T06:40:55;10.48;;;6.75;;
32633;SDS011;19043;51.012;5.648;2023-02-28T06:43:20;13.40;;;7.20;;
32633;SDS011;19043;51.012;5.648;2023-02-28T06:45:45;12.65;;;7.47;;
32633;SDS011;19043;51.012;5.648;2023-02-28T06:48:11;13.50;;;6.40;;
32633;SDS011;19043;51.012;5.648;2023-02-28T06:50:36;13.57;;;7.20;;
32633;SDS011;19043;51.012;5.648;2023-02-28T06:53:02;9.75;;;6.57;;
32633;SDS011;19043;51.012;5.648;2023-02-28T06:55:27;12.18;;;6.90;;
32633;SDS011;19043;51.012;5.648;2023-02-28T06:57:52;11.35;;;7.03;;
32633;SDS011;19043;51.012;5.648;2023-02-28T07:00:19;11.13;;;6.53;;
32633;SDS011;19043;51.012;5.648;2023-02-28T07:02:45;10.70;;;7.05;;
32633;SDS011;19043;51.012;5.648;2023-02-28T07:05:10;8.27;;;5.88;;
32633;SDS011;19043;51.012;5.648;2023-02-28T07:07:35;11.05;;;6.70;;
32633;SDS011;19043;51.012;5.648;2023-02-28T07:10:03;9.02;;;5.78;;
32633;SDS011;19043;51.012;5.648;2023-02-28T07:12:28;10.80;;;6.80;;
32633;SDS011;19043;51.012;5.648;2023-02-28T07:14:54;10.25;;;6.53;;
32633;SDS011;19043;51.012;5.648;2023-02-28T07:17:20;12.55;;;6.53;;
32633;SDS011;19043;51.012;5.648;2023-02-28T07:19:46;11.57;;;6.13;;
32633;SDS011;19043;51.012;5.648;2023-02-28T07:22:11;10.82;;;6.40;;
32633;SDS011;19043;51.012;5.648;2023-02-28T07:24:36;13.18;;;6.70;;
32633;SDS011;19043;51.012;5.648;2023-02-28T07:27:03;11.88;;;6.53;;
32633;SDS011;19043;51.012;5.648;2023-02-28T07:29:28;13.35;;;7.05;;
32633;SDS011;19043;51.012;5.648;2023-02-28T07:31:53;11.77;;;6.78;;
32633;SDS011;19043;51.012;5.648;2023-02-28T07:34:19;11.13;;;6.57;;
32633;SDS011;19043;51.012;5.648;2023-02-28T07:36:44;8.23;;;6.10;;
32633;SDS011;19043;51.012;5.648;2023-02-28T07:39:10;10.77;;;6.28;;
32633;SDS011;19043;51.012;5.648;2023-02-28T07:41:35;9.80;;;6.13;;
32633;SDS011;19043;51.012;5.648;2023-02-28T07:44:04;11.02;;;5.97;;
32633;SDS011;19043;51.012;5.648;2023-02-28T07:46:29;9.52;;;6.63;;
32633;SDS011;19043;51.012;5.648;2023-02-28T07:49:00;12.77;;;6.05;;
32633;SDS011;19043;51.012;5.648;2023-02-28T07:51:25;11.13;;;6.80;;
32633;SDS011;19043;51.012;5.648;2023-02-28T07:53:50;13.27;;;6.18;;
32633;SDS011;19043;51.012;5.648;2023-02-28T07:56:16;9.98;;;5.47;;
32633;SDS011;19043;51.012;5.648;2023-02-28T07:58:41;12.90;;;5.22;;
32633;SDS011;19043;51.012;5.648;2023-02-28T08:01:07;15.18;;;5.70;;
32633;SDS011;19043;51.012;5.648;2023-02-28T08:03:32;11.77;;;6.10;;
32633;SDS011;19043;51.012;5.648;2023-02-28T08:05:58;8.27;;;5.97;;
32633;SDS011;19043;51.012;5.648;2023-02-28T08:08:23;15.80;;;6.10;;
32633;SDS011;19043;51.012;5.648;2023-02-28T08:10:48;9.05;;;5.65;;
32633;SDS011;19043;51.012;5.648;2023-02-28T08:13:14;10.27;;;5.85;;
32633;SDS011;19043;51.012;5.648;2023-02-28T08:15:40;10.63;;;5.90;;
32633;SDS011;19043;51.012;5.648;2023-02-28T08:18:05;12.07;;;5.28;;
32633;SDS011;19043;51.012;5.648;2023-02-28T08:20:31;8.45;;;5.30;;
32633;SDS011;19043;51.012;5.648;2023-02-28T08:22:56;11.82;;;5.75;;
32633;SDS011;19043;51.012;5.648;2023-02-28T08:25:21;9.68;;;5.20;;
32633;SDS011;19043;51.012;5.648;2023-02-28T08:27:46;8.07;;;5.07;;
32633;SDS011;19043;51.012;5.648;2023-02-28T08:30:12;10.10;;;5.00;;
32633;SDS011;19043;51.012;5.648;2023-02-28T08:32:38;7.85;;;5.07;;
32633;SDS011;19043;51.012;5.648;2023-02-28T08:35:03;7.55;;;4.75;;
32633;SDS011;19043;51.012;5.648;2023-02-28T08:37:28;7.70;;;4.75;;
32633;SDS011;19043;51.012;5.648;2023-02-28T08:39:54;10.68;;;5.40;;
32633;SDS011;19043;51.012;5.648;2023-02-28T08:42:19;9.45;;;4.93;;
32633;SDS011;19043;51.012;5.648;2023-02-28T08:44:45;7.53;;;4.40;;
32633;SDS011;19043;51.012;5.648;2023-02-28T08:47:10;10.10;;;4.30;;
32633;SDS011;19043;51.012;5.648;2023-02-28T08:49:36;8.60;;;4.15;;
32633;SDS011;19043;51.012;5.648;2023-02-28T08:52:02;6.93;;;3.78;;
32633;SDS011;19043;51.012;5.648;2023-02-28T08:54:27;7.40;;;3.67;;
32633;SDS011;19043;51.012;5.648;2023-02-28T08:56:55;6.32;;;4.15;;
32633;SDS011;19043;51.012;5.648;2023-02-28T08:59:20;7.55;;;3.97;;
32633;SDS011;19043;51.012;5.648;2023-02-28T09:01:46;8.15;;;3.90;;
32633;SDS011;19043;51.012;5.648;2023-02-28T09:04:11;5.68;;;3.63;;
32633;SDS011;19043;51.012;5.648;2023-02-28T09:06:36;5.85;;;3.47;;
32633;SDS011;19043;51.012;5.648;2023-02-28T09:09:02;8.55;;;3.42;;
32633;SDS011;19043;51.012;5.648;2023-02-28T09:11:30;8.43;;;3.53;;
32633;SDS011;19043;51.012;5.648;2023-02-28T09:13:56;6.18;;;3.47;;
32633;SDS011;19043;51.012;5.648;2023-02-28T09:16:22;6.57;;;3.58;;
32633;SDS011;19043;51.012;5.648;2023-02-28T09:18:47;9.02;;;3.03;;
32633;SDS011;19043;51.012;5.648;2023-02-28T09:21:14;6.18;;;3.45;;
32633;SDS011;19043;51.012;5.648;2023-02-28T09:23:40;5.15;;;2.88;;
32633;SDS011;19043;51.012;5.648;2023-02-28T09:26:06;4.30;;;2.83;;
32633;SDS011;19043;51.012;5.648;2023-02-28T09:28:31;5.05;;;3.17;;
32633;SDS011;19043;51.012;5.648;2023-02-28T09:30:57;5.72;;;2.75;;
32633;SDS011;19043;51.012;5.648;2023-02-28T09:33:24;8.50;;;3.03;;
32633;SDS011;19043;51.012;5.648;2023-02-28T09:35:49;5.57;;;2.50;;
32633;SDS011;19043;51.012;5.648;2023-02-28T09:38:15;8.25;;;2.88;;
32633;SDS011;19043;51.012;5.648;2023-02-28T09:40:52;4.25;;;2.70;;
32633;SDS011;19043;51.012;5.648;2023-02-28T09:43:19;4.43;;;2.53;;
32633;SDS011;19043;51.012;5.648;2023-02-28T09:46:05;4.97;;;2.45;;
32633;SDS011;19043;51.012;5.648;2023-02-28T09:48:32;4.07;;;2.50;;
32633;SDS011;19043;51.012;5.648;2023-02-28T09:51:04;4.22;;;2.42;;
32633;SDS011;19043;51.012;5.648;2023-02-28T09:53:34;4.65;;;2.38;;
32633;SDS011;19043;51.012;5.648;2023-02-28T09:56:06;4.80;;;2.40;;
32633;SDS011;19043;51.012;5.648;2023-02-28T10:01:25;6.00;;;2.45;;
32633;SDS011;19043;51.012;5.648;2023-02-28T10:03:55;3.45;;;1.83;;
32633;SDS011;19043;51.012;5.648;2023-02-28T10:06:22;3.58;;;2.10;;
32633;SDS011;19043;51.012;5.648;2023-02-28T10:11:25;3.60;;;2.17;;
32633;SDS011;19043;51.012;5.648;2023-02-28T10:13:52;5.28;;;2.30;;
32633;SDS011;19043;51.012;5.648;2023-02-28T10:16:27;3.42;;;1.70;;
32633;SDS011;19043;51.012;5.648;2023-02-28T10:18:59;3.45;;;1.98;;
32633;SDS011;19043;51.012;5.648;2023-02-28T10:21:36;2.72;;;1.75;;
32633;SDS011;19043;51.012;5.648;2023-02-28T10:24:05;4.90;;;2.20;;
32633;SDS011;19043;51.012;5.648;2023-02-28T10:26:36;5.32;;;1.85;;
32633;SDS011;19043;51.012;5.648;2023-02-28T10:29:01;3.72;;;1.77;;
32633;SDS011;19043;51.012;5.648;2023-02-28T10:31:27;3.50;;;1.98;;
32633;SDS011;19043;51.012;5.648;2023-02-28T10:33:53;3.70;;;1.60;;
32633;SDS011;19043;51.012;5.648;2023-02-28T10:36:19;4.82;;;1.67;;
32633;SDS011;19043;51.012;5.648;2023-02-28T10:38:45;5.90;;;2.00;;
32633;SDS011;19043;51.012;5.648;2023-02-28T10:43:37;8.97;;;1.63;;
32633;SDS011;19043;51.012;5.648;2023-02-28T10:46:04;3.30;;;1.42;;
32633;SDS011;19043;51.012;5.648;2023-02-28T10:48:37;4.40;;;1.65;;
32633;SDS011;19043;51.012;5.648;2023-02-28T10:51:04;3.03;;;1.48;;
32633;SDS011;19043;51.012;5.648;2023-02-28T10:53:34;3.97;;;1.75;;
32633;SDS011;19043;51.012;5.648;2023-02-28T11:01:00;5.25;;;1.90;;
32633;SDS011;19043;51.012;5.648;2023-02-28T11:03:30;3.75;;;2.10;;
32633;SDS011;19043;51.012;5.648;2023-02-28T11:05:55;7.47;;;1.92;;
32633;SDS011;19043;51.012;5.648;2023-02-28T11:08:21;4.30;;;1.92;;
32633;SDS011;19043;51.012;5.648;2023-02-28T11:10:47;4.57;;;1.90;;
32633;SDS011;19043;51.012;5.648;2023-02-28T11:13:19;7.88;;;1.88;;
32633;SDS011;19043;51.012;5.648;2023-02-28T11:15:52;4.40;;;2.00;;
32633;SDS011;19043;51.012;5.648;2023-02-28T11:20:43;3.55;;;1.50;;
32633;SDS011;19043;51.012;5.648;2023-02-28T11:23:13;4.45;;;1.77;;
32633;SDS011;19043;51.012;5.648;2023-02-28T11:25:39;3.63;;;1.52;;
32633;SDS011;19043;51.012;5.648;2023-02-28T11:28:05;4.60;;;2.08;;
32633;SDS011;19043;51.012;5.648;2023-02-28T11:30:32;3.78;;;1.33;;
32633;SDS011;19043;51.012;5.648;2023-02-28T11:35:45;3.90;;;1.90;;
32633;SDS011;19043;51.012;5.648;2023-02-28T11:38:13;4.15;;;2.15;;
32633;SDS011;19043;51.012;5.648;2023-02-28T11:51:21;4.00;;;1.75;;
32633;SDS011;19043;51.012;5.648;2023-02-28T11:56:36;4.10;;;1.75;;
32633;SDS011;19043;51.012;5.648;2023-02-28T12:02:02;3.38;;;1.48;;
32633;SDS011;19043;51.012;5.648;2023-02-28T12:04:36;5.45;;;1.30;;
32633;SDS011;19043;51.012;5.648;2023-02-28T12:07:49;5.53;;;1.90;;
32633;SDS011;19043;51.012;5.648;2023-02-28T12:12:35;3.50;;;1.70;;
32633;SDS011;19043;51.012;5.648;2023-02-28T12:20:25;6.05;;;1.98;;
32633;SDS011;19043;51.012;5.648;2023-02-28T12:23:00;4.03;;;1.85;;
32633;SDS011;19043;51.012;5.648;2023-02-28T12:28:13;3.85;;;1.80;;
32633;SDS011;19043;51.012;5.648;2023-02-28T12:30:42;3.58;;;1.50;;
32633;SDS011;19043;51.012;5.648;2023-02-28T12:33:09;5.15;;;1.60;;
32633;SDS011;19043;51.012;5.648;2023-02-28T12:35:39;2.88;;;1.50;;
32633;SDS011;19043;51.012;5.648;2023-02-28T12:38:10;3.70;;;1.45;;
32633;SDS011;19043;51.012;5.648;2023-02-28T12:40:48;3.97;;;1.73;;
32633;SDS011;19043;51.012;5.648;2023-02-28T12:43:15;3.17;;;1.55;;
32633;SDS011;19043;51.012;5.648;2023-02-28T12:45:58;3.25;;;1.63;;
32633;SDS011;19043;51.012;5.648;2023-02-28T12:48:29;3.33;;;1.77;;
32633;SDS011;19043;51.012;5.648;2023-02-28T12:50:56;6.15;;;1.98;;
32633;SDS011;19043;51.012;5.648;2023-02-28T12:58:28;2.75;;;1.75;;
32633;SDS011;19043;51.012;5.648;2023-02-28T13:01:15;6.85;;;1.60;;
32633;SDS011;19043;51.012;5.648;2023-02-28T13:07:35;4.20;;;1.92;;
32633;SDS011;19043;51.012;5.648;2023-02-28T13:09:27;3.28;;;2.05;;
32633;SDS011;19043;51.012;5.648;2023-02-28T13:11:54;3.75;;;1.42;;
32633;SDS011;19043;51.012;5.648;2023-02-28T13:14:34;5.75;;;1.83;;
32633;SDS011;19043;51.012;5.648;2023-02-28T13:19:26;4.20;;;1.83;;
32633;SDS011;19043;51.012;5.648;2023-02-28T13:21:52;5.00;;;2.10;;
32633;SDS011;19043;51.012;5.648;2023-02-28T13:29:28;2.75;;;1.50;;
32633;SDS011;19043;51.012;5.648;2023-02-28T13:34:40;3.05;;;1.58;;
32633;SDS011;19043;51.012;5.648;2023-02-28T13:47:27;3.75;;;1.52;;
32633;SDS011;19043;51.012;5.648;2023-02-28T13:49:53;5.45;;;2.42;;
32633;SDS011;19043;51.012;5.648;2023-02-28T13:52:20;4.47;;;1.98;;
32633;SDS011;19043;51.012;5.648;2023-02-28T14:02:40;4.13;;;1.67;;
32633;SDS011;19043;51.012;5.648;2023-02-28T14:05:18;3.72;;;1.75;;
32633;SDS011;19043;51.012;5.648;2023-02-28T14:07:50;4.28;;;1.67;;
32633;SDS011;19043;51.012;5.648;2023-02-28T14:12:57;6.97;;;1.88;;
32633;SDS011;19043;51.012;5.648;2023-02-28T14:18:03;4.75;;;1.58;;
32633;SDS011;19043;51.012;5.648;2023-02-28T14:20:31;4.07;;;1.70;;
32633;SDS011;19043;51.012;5.648;2023-02-28T14:28:12;3.65;;;1.50;;
32633;SDS011;19043;51.012;5.648;2023-02-28T14:38:33;4.00;;;1.55;;
32633;SDS011;19043;51.012;5.648;2023-02-28T14:41:00;3.20;;;1.95;;
32633;SDS011;19043;51.012;5.648;2023-02-28T14:43:27;5.03;;;1.80;;
32633;SDS011;19043;51.012;5.648;2023-02-28T14:46:00;2.47;;;1.38;;
32633;SDS011;19043;51.012;5.648;2023-02-28T14:48:25;3.38;;;1.55;;
32633;SDS011;19043;51.012;5.648;2023-02-28T14:50:53;4.30;;;1.83;;
32633;SDS011;19043;51.012;5.648;2023-02-28T14:53:19;2.88;;;1.98;;
32633;SDS011;19043;51.012;5.648;2023-02-28T14:55:46;3.65;;;1.98;;
32633;SDS011;19043;51.012;5.648;2023-02-28T14:58:21;4.32;;;1.55;;
32633;SDS011;19043;51.012;5.648;2023-02-28T15:00:48;10.20;;;2.00;;
32633;SDS011;19043;51.012;5.648;2023-02-28T15:03:18;4.47;;;2.17;;
32633;SDS011;19043;51.012;5.648;2023-02-28T15:05:47;3.30;;;1.65;;
32633;SDS011;19043;51.012;5.648;2023-02-28T15:08:16;5.20;;;2.17;;
32633;SDS011;19043;51.012;5.648;2023-02-28T15:10:44;6.78;;;2.20;;
32633;SDS011;19043;51.012;5.648;2023-02-28T15:13:12;2.85;;;1.85;;
32633;SDS011;19043;51.012;5.648;2023-02-28T15:18:16;4.78;;;2.15;;
32633;SDS011;19043;51.012;5.648;2023-02-28T15:20:46;3.15;;;1.95;;
32633;SDS011;19043;51.012;5.648;2023-02-28T15:23:11;5.47;;;2.17;;
32633;SDS011;19043;51.012;5.648;2023-02-28T15:25:37;3.80;;;2.10;;
32633;SDS011;19043;51.012;5.648;2023-02-28T15:28:03;3.88;;;2.05;;
32633;SDS011;19043;51.012;5.648;2023-02-28T15:30:29;4.50;;;2.28;;
32633;SDS011;19043;51.012;5.648;2023-02-28T15:35:38;8.27;;;2.97;;
32633;SDS011;19043;51.012;5.648;2023-02-28T15:40:52;4.25;;;2.22;;
32633;SDS011;19043;51.012;5.648;2023-02-28T15:45:54;4.60;;;2.40;;
32633;SDS011;19043;51.012;5.648;2023-02-28T15:48:21;5.30;;;2.15;;
32633;SDS011;19043;51.012;5.648;2023-02-28T15:50:49;4.30;;;2.65;;
32633;SDS011;19043;51.012;5.648;2023-02-28T15:53:16;4.53;;;2.72;;
32633;SDS011;19043;51.012;5.648;2023-02-28T15:55:41;4.70;;;2.72;;
32633;SDS011;19043;51.012;5.648;2023-02-28T15:58:08;4.35;;;2.38;;
32633;SDS011;19043;51.012;5.648;2023-02-28T16:00:34;4.47;;;2.83;;
32633;SDS011;19043;51.012;5.648;2023-02-28T16:02:59;4.63;;;2.33;;
32633;SDS011;19043;51.012;5.648;2023-02-28T16:07:55;4.72;;;2.75;;
32633;SDS011;19043;51.012;5.648;2023-02-28T16:10:21;5.35;;;2.60;;
32633;SDS011;19043;51.012;5.648;2023-02-28T16:12:50;3.60;;;2.22;;
32633;SDS011;19043;51.012;5.648;2023-02-28T16:15:19;8.38;;;2.90;;
32633;SDS011;19043;51.012;5.648;2023-02-28T16:17:45;6.47;;;3.08;;
32633;SDS011;19043;51.012;5.648;2023-02-28T16:20:21;4.18;;;2.78;;
32633;SDS011;19043;51.012;5.648;2023-02-28T16:22:47;5.18;;;2.40;;
32633;SDS011;19043;51.012;5.648;2023-02-28T16:25:54;6.55;;;3.22;;
32633;SDS011;19043;51.012;5.648;2023-02-28T16:28:01;4.10;;;2.63;;
32633;SDS011;19043;51.012;5.648;2023-02-28T16:30:27;4.13;;;2.15;;
32633;SDS011;19043;51.012;5.648;2023-02-28T16:32:54;6.93;;;2.95;;
32633;SDS011;19043;51.012;5.648;2023-02-28T16:35:20;3.83;;;2.30;;
32633;SDS011;19043;51.012;5.648;2023-02-28T16:37:45;4.22;;;2.40;;
32633;SDS011;19043;51.012;5.648;2023-02-28T16:40:17;3.80;;;2.25;;
32633;SDS011;19043;51.012;5.648;2023-02-28T16:42:43;3.58;;;2.25;;
32633;SDS011;19043;51.012;5.648;2023-02-28T16:45:16;3.85;;;2.40;;
32633;SDS011;19043;51.012;5.648;2023-02-28T16:47:44;4.43;;;2.42;;
32633;SDS011;19043;51.012;5.648;2023-02-28T16:50:16;4.60;;;2.75;;
32633;SDS011;19043;51.012;5.648;2023-02-28T16:52:42;4.15;;;2.28;;
32633;SDS011;19043;51.012;5.648;2023-02-28T16:55:07;6.00;;;2.35;;
32633;SDS011;19043;51.012;5.648;2023-02-28T16:57:32;4.43;;;2.67;;
32633;SDS011;19043;51.012;5.648;2023-02-28T16:59:58;4.55;;;2.75;;
32633;SDS011;19043;51.012;5.648;2023-02-28T17:02:23;4.00;;;2.22;;
32633;SDS011;19043;51.012;5.648;2023-02-28T17:04:48;5.75;;;3.53;;
32633;SDS011;19043;51.012;5.648;2023-02-28T17:07:14;5.18;;;3.22;;
32633;SDS011;19043;51.012;5.648;2023-02-28T17:09:41;3.92;;;2.40;;
32633;SDS011;19043;51.012;5.648;2023-02-28T17:12:06;3.60;;;2.35;;
32633;SDS011;19043;51.012;5.648;2023-02-28T17:14:32;10.25;;;3.10;;